createdAt,value
2018-07-26T00:00:35.933Z,12.87
2018-07-26T00:03:03.730Z,11.73
2018-07-26T00:05:31.569Z,10.43
2018-07-26T00:07:59.317Z,13.33
2018-07-26T00:10:27.126Z,17.10
2018-07-26T00:12:55.018Z,11.90
2018-07-26T00:15:22.795Z,14.87
2018-07-26T00:17:50.557Z,15.33
2018-07-26T00:20:18.313Z,16.57
2018-07-26T00:22:46.085Z,14.30
2018-07-26T00:25:13.873Z,15.93
2018-07-26T00:27:41.678Z,13.67
2018-07-26T00:30:09.440Z,15.90
2018-07-26T00:32:37.213Z,22.73
2018-07-26T00:35:05.098Z,19.50
2018-07-26T00:37:32.901Z,17.53
2018-07-26T00:40:00.683Z,18.07
2018-07-26T00:42:28.469Z,22.47
2018-07-26T00:44:56.237Z,18.03
2018-07-26T00:47:24.017Z,14.70
2018-07-26T00:49:51.777Z,14.60
2018-07-26T00:52:19.589Z,14.03
2018-07-26T00:54:47.372Z,13.67
2018-07-26T00:57:15.197Z,13.30
2018-07-26T00:59:43.034Z,10.50
2018-07-26T01:02:10.822Z,10.50
2018-07-26T01:04:38.610Z,11.83
2018-07-26T01:07:06.397Z,14.07
2018-07-26T01:09:34.195Z,11.70
2018-07-26T01:12:02.090Z,10.67
2018-07-26T01:14:29.852Z,8.67
2018-07-26T01:16:57.642Z,9.50
2018-07-26T01:19:25.464Z,7.73
2018-07-26T01:21:53.282Z,8.77
2018-07-26T01:24:21.083Z,9.27
2018-07-26T01:26:48.898Z,10.33
2018-07-26T01:29:18.929Z,12.03
2018-07-26T01:31:46.999Z,9.33
2018-07-26T01:34:14.778Z,7.90
2018-07-26T01:36:42.595Z,7.83
2018-07-26T01:39:10.401Z,9.50
2018-07-26T01:41:38.181Z,10.77
2018-07-26T01:44:15.362Z,10.10
2018-07-26T01:46:43.226Z,11.53
2018-07-26T01:49:11.037Z,13.60
2018-07-26T01:51:38.809Z,7.93
2018-07-26T01:54:06.598Z,8.20
2018-07-26T01:56:34.363Z,8.87
2018-07-26T01:59:02.136Z,9.10
2018-07-26T02:01:29.957Z,8.87
2018-07-26T02:03:57.741Z,9.67
2018-07-26T02:06:25.518Z,9.87
2018-07-26T02:08:53.269Z,13.80
2018-07-26T02:11:21.044Z,11.27
2018-07-26T02:13:48.872Z,14.07
2018-07-26T02:16:16.661Z,14.93
2018-07-26T02:18:44.469Z,14.67
2018-07-26T02:21:12.249Z,13.43
2018-07-26T02:23:40.092Z,12.40
2018-07-26T02:26:07.910Z,14.47
2018-07-26T02:28:35.685Z,13.30
2018-07-26T02:31:03.575Z,16.13
2018-07-26T02:33:31.339Z,13.83
2018-07-26T02:35:59.129Z,12.80
2018-07-26T02:38:26.950Z,13.63
2018-07-26T02:40:54.758Z,15.50
2018-07-26T02:43:22.523Z,16.73
2018-07-26T02:45:50.301Z,13.57
2018-07-26T02:48:18.089Z,15.03
2018-07-26T02:50:45.886Z,15.27
2018-07-26T02:53:13.669Z,24.47
2018-07-26T02:55:41.425Z,15.97
2018-07-26T02:58:09.303Z,16.43
2018-07-26T03:00:37.149Z,13.43
2018-07-26T03:03:05.094Z,12.93
2018-07-26T03:05:32.862Z,12.83
2018-07-26T03:08:00.647Z,16.33
2018-07-26T03:10:28.427Z,13.50
2018-07-26T03:12:56.238Z,12.03
2018-07-26T03:15:24.072Z,10.80
2018-07-26T03:17:51.865Z,13.70
2018-07-26T03:20:19.658Z,14.47
2018-07-26T03:22:47.462Z,8.30
2018-07-26T03:25:15.258Z,9.53
2018-07-26T03:27:43.041Z,9.90
2018-07-26T03:30:10.846Z,9.50
2018-07-26T03:32:38.685Z,10.17
2018-07-26T03:35:06.596Z,19.60
2018-07-26T03:37:34.418Z,11.60
2018-07-26T03:40:02.209Z,11.23
2018-07-26T03:42:29.948Z,7.77
2018-07-26T03:44:57.729Z,12.53
2018-07-26T03:47:25.509Z,6.73
2018-07-26T03:49:53.300Z,9.17
2018-07-26T03:52:21.081Z,6.57
2018-07-26T03:54:48.858Z,6.23
2018-07-26T03:57:16.766Z,10.17
2018-07-26T03:59:44.585Z,7.53
2018-07-26T04:02:12.373Z,9.83
2018-07-26T04:04:40.144Z,6.30
2018-07-26T04:07:07.962Z,9.27
2018-07-26T04:09:35.757Z,8.40
2018-07-26T04:12:03.626Z,6.80
2018-07-26T04:14:31.402Z,6.07
2018-07-26T04:16:59.157Z,6.13
2018-07-26T04:19:26.902Z,8.53
2018-07-26T04:21:54.646Z,7.83
2018-07-26T04:24:22.433Z,9.20
2018-07-26T04:26:50.254Z,6.07
2018-07-26T04:29:18.038Z,8.10
2018-07-26T04:31:45.844Z,10.90
2018-07-26T04:34:13.632Z,9.23
2018-07-26T04:36:41.441Z,8.40
2018-07-26T04:39:09.929Z,7.67
2018-07-26T04:41:37.829Z,5.83
2018-07-26T04:44:05.594Z,10.17
2018-07-26T04:46:33.338Z,8.53
2018-07-26T04:49:01.199Z,7.60
2018-07-26T04:51:28.961Z,7.50
2018-07-26T04:53:56.737Z,8.43
2018-07-26T04:56:24.498Z,9.27
2018-07-26T04:58:52.269Z,8.20
2018-07-26T05:01:20.094Z,18.97
2018-07-26T05:03:47.873Z,10.20
2018-07-26T05:06:15.665Z,10.80
2018-07-26T05:08:43.419Z,14.47
2018-07-26T05:11:11.194Z,13.13
2018-07-26T05:13:38.998Z,20.00
2018-07-26T05:16:06.794Z,14.33
2018-07-26T05:18:34.623Z,12.47
2018-07-26T05:21:02.392Z,12.83
2018-07-26T05:23:30.217Z,14.17
2018-07-26T05:25:58.058Z,11.27
2018-07-26T05:28:25.824Z,16.77
2018-07-26T05:30:53.595Z,16.37
2018-07-26T05:33:21.397Z,15.53
2018-07-26T05:35:49.179Z,13.33
2018-07-26T05:38:16.985Z,15.07
2018-07-26T05:40:44.798Z,13.67
2018-07-26T05:43:12.617Z,11.07
2018-07-26T05:45:40.382Z,13.20
2018-07-26T05:48:08.226Z,15.37
2018-07-26T05:50:36.038Z,10.33
2018-07-26T05:53:03.853Z,11.80
2018-07-26T05:55:31.625Z,7.57
2018-07-26T05:57:59.406Z,7.40
2018-07-26T06:00:27.158Z,7.37
2018-07-26T06:02:54.937Z,6.70
2018-07-26T06:05:22.697Z,7.27
2018-07-26T06:07:50.525Z,9.37
2018-07-26T06:10:18.335Z,7.20
2018-07-26T06:12:46.149Z,7.50
2018-07-26T06:15:14.229Z,8.23
2018-07-26T06:17:42.026Z,7.23
2018-07-26T06:20:11.360Z,5.47
2018-07-26T06:22:39.602Z,6.53
2018-07-26T06:25:08.190Z,6.07
2018-07-26T06:27:35.997Z,8.20
2018-07-26T06:30:05.787Z,4.60
2018-07-26T06:32:33.636Z,7.87
2018-07-26T06:35:01.442Z,7.40
2018-07-26T06:37:29.299Z,5.63
2018-07-26T06:39:57.133Z,5.70
2018-07-26T06:42:24.953Z,5.13
2018-07-26T06:44:52.764Z,4.80
2018-07-26T06:47:20.541Z,13.97
2018-07-26T06:49:48.301Z,13.77
2018-07-26T06:52:16.152Z,14.83
2018-07-26T06:54:43.940Z,16.17
2018-07-26T06:57:11.718Z,14.97
2018-07-26T06:59:39.517Z,17.20
2018-07-26T07:02:07.653Z,17.53
2018-07-26T07:04:35.417Z,21.73
2018-07-26T07:07:03.300Z,19.40
2018-07-26T07:09:31.069Z,24.83
2018-07-26T07:11:58.882Z,21.17
2018-07-26T07:14:26.724Z,16.63
2018-07-26T07:16:54.634Z,15.30
2018-07-26T07:19:22.470Z,15.83
2018-07-26T07:21:50.313Z,16.50
2018-07-26T07:24:21.921Z,14.10
2018-07-26T07:26:51.458Z,16.33
2018-07-26T07:29:19.559Z,14.97
2018-07-26T07:31:47.733Z,14.57
2018-07-26T07:34:15.538Z,15.87
2018-07-26T07:36:43.395Z,17.93
2018-07-26T07:39:13.016Z,12.47
2018-07-26T07:41:40.869Z,12.93
2018-07-26T07:44:09.229Z,10.83
2018-07-26T07:46:37.176Z,13.73
2018-07-26T07:49:05.129Z,10.60
2018-07-26T07:51:33.243Z,9.47
2018-07-26T07:54:01.043Z,8.67
2018-07-26T07:56:28.930Z,7.50
2018-07-26T07:58:56.760Z,9.30
2018-07-26T08:01:25.003Z,7.73
2018-07-26T08:03:52.785Z,6.57
2018-07-26T08:06:20.590Z,6.80
2018-07-26T08:08:48.715Z,7.60
2018-07-26T08:11:16.571Z,7.40
2018-07-26T08:13:44.362Z,4.37
2018-07-26T08:16:12.144Z,5.03
2018-07-26T08:18:39.957Z,4.60
2018-07-26T08:21:07.750Z,4.70
2018-07-26T08:23:35.542Z,5.53
2018-07-26T08:26:03.512Z,4.77
2018-07-26T08:28:31.298Z,5.57
2018-07-26T08:30:59.102Z,4.83
2018-07-26T08:33:26.953Z,4.77
2018-07-26T08:35:54.750Z,4.90
2018-07-26T08:38:22.590Z,4.57
2018-07-26T08:40:50.383Z,4.47
2018-07-26T08:43:18.190Z,4.60
2018-07-26T08:45:46.000Z,4.47
2018-07-26T08:48:13.821Z,4.70
2018-07-26T08:50:41.702Z,5.85
2018-07-26T08:53:09.489Z,5.43
2018-07-26T08:55:37.373Z,4.87
2018-07-26T08:58:05.168Z,4.57
2018-07-26T09:00:33.024Z,5.53
2018-07-26T09:03:00.879Z,4.87
2018-07-26T09:05:28.686Z,5.87
2018-07-26T09:07:56.483Z,5.00
2018-07-26T09:10:24.241Z,6.13
2018-07-26T09:12:52.150Z,5.63
2018-07-26T09:15:19.942Z,5.43
2018-07-26T09:17:47.781Z,5.63
2018-07-26T09:20:15.571Z,6.00
2018-07-26T09:22:43.348Z,5.27
2018-07-26T09:25:11.138Z,5.10
2018-07-26T09:27:38.934Z,5.63
2018-07-26T09:30:08.082Z,6.23
2018-07-26T09:32:35.917Z,6.60
2018-07-26T09:35:03.747Z,7.90
2018-07-26T09:37:31.559Z,6.67
2018-07-26T09:39:59.399Z,6.13
2018-07-26T09:42:27.215Z,7.20
2018-07-26T09:44:55.151Z,5.97
2018-07-26T09:47:22.976Z,6.07
2018-07-26T09:49:50.906Z,6.30
2018-07-26T09:52:18.660Z,7.67
2018-07-26T09:54:46.451Z,6.13
2018-07-26T09:57:14.252Z,5.37
2018-07-26T09:59:42.088Z,5.80
2018-07-26T10:02:09.965Z,6.83
2018-07-26T10:04:37.749Z,5.37
2018-07-26T10:07:05.544Z,5.50
2018-07-26T10:09:34.212Z,5.57
2018-07-26T10:12:02.008Z,6.73
2018-07-26T10:14:29.815Z,4.70
2018-07-26T10:16:57.652Z,4.83
2018-07-26T10:19:25.462Z,5.03
2018-07-26T10:21:53.336Z,4.60
2018-07-26T10:24:21.117Z,4.60
2018-07-26T10:26:49.342Z,5.17
2018-07-26T10:29:17.106Z,5.40
2018-07-26T10:31:44.890Z,4.57
2018-07-26T10:34:12.705Z,5.53
2018-07-26T10:36:40.543Z,4.50
2018-07-26T10:39:09.729Z,4.73
2018-07-26T10:41:37.555Z,4.60
2018-07-26T10:44:05.351Z,4.90
2018-07-26T10:46:33.186Z,5.53
2018-07-26T10:49:00.993Z,4.60
2018-07-26T10:51:28.787Z,4.90
2018-07-26T10:53:56.545Z,5.00
2018-07-26T10:56:24.414Z,5.33
2018-07-26T10:58:52.337Z,4.77
2018-07-26T11:01:20.155Z,5.40
2018-07-26T11:03:48.024Z,5.27
2018-07-26T11:06:15.826Z,6.67
2018-07-26T11:08:43.611Z,5.13
2018-07-26T11:11:11.399Z,5.00
2018-07-26T11:13:40.015Z,6.63
2018-07-26T11:16:07.801Z,5.13
2018-07-26T11:18:35.652Z,4.87
2018-07-26T11:21:03.480Z,5.17
2018-07-26T11:23:31.323Z,4.93
2018-07-26T11:25:59.161Z,5.43
2018-07-26T11:28:27.014Z,5.30
2018-07-26T11:30:54.858Z,4.83
2018-07-26T11:33:22.733Z,5.17
2018-07-26T11:35:50.682Z,4.53
2018-07-26T11:38:18.571Z,5.77
2018-07-26T11:40:46.424Z,5.23
2018-07-26T11:43:14.291Z,5.40
2018-07-26T11:45:42.152Z,5.40
2018-07-26T11:48:10.061Z,5.07
2018-07-26T11:50:37.957Z,5.70
2018-07-26T11:53:06.005Z,5.50
2018-07-26T11:55:34.361Z,5.47
2018-07-26T11:58:02.221Z,5.23
2018-07-26T12:00:30.092Z,5.33
2018-07-26T12:02:57.973Z,5.33
2018-07-26T12:05:25.813Z,5.60
2018-07-26T12:07:53.639Z,5.90
2018-07-26T12:10:21.457Z,5.53
2018-07-26T12:12:49.270Z,6.00
2018-07-26T12:15:17.113Z,5.90
2018-07-26T12:17:45.014Z,5.40
2018-07-26T12:20:12.839Z,5.60
2018-07-26T12:22:40.987Z,5.93
2018-07-26T12:25:08.837Z,5.53
2018-07-26T12:27:36.657Z,6.00
2018-07-26T12:30:06.161Z,5.73
2018-07-26T12:32:34.019Z,5.97
2018-07-26T12:35:01.874Z,6.20
2018-07-26T12:37:29.734Z,5.30
2018-07-26T12:39:57.606Z,5.87
2018-07-26T12:42:25.474Z,5.73
2018-07-26T12:44:53.408Z,5.60
2018-07-26T12:47:21.250Z,7.00
2018-07-26T12:49:49.108Z,5.93
2018-07-26T12:52:18.985Z,6.53
2018-07-26T12:54:46.867Z,6.10
2018-07-26T12:57:14.706Z,6.17
2018-07-26T12:59:42.569Z,7.43
2018-07-26T13:02:11.754Z,6.30
2018-07-26T13:04:39.603Z,5.80
2018-07-26T13:07:07.562Z,5.97
2018-07-26T13:09:35.401Z,6.83
2018-07-26T13:12:03.336Z,6.00
2018-07-26T13:14:31.164Z,5.70
2018-07-26T13:16:58.981Z,5.60
2018-07-26T13:19:26.869Z,6.20
2018-07-26T13:21:54.740Z,6.20
2018-07-26T13:24:22.660Z,6.00
2018-07-26T13:26:50.525Z,6.20
2018-07-26T13:29:18.346Z,7.07
2018-07-26T13:31:46.261Z,6.20
2018-07-26T13:34:14.113Z,6.33
2018-07-26T13:36:41.938Z,6.20
2018-07-26T13:39:12.201Z,6.40
2018-07-26T13:41:40.072Z,5.87
2018-07-26T13:44:08.053Z,6.60
2018-07-26T13:46:36.238Z,5.80
2018-07-26T13:49:04.177Z,8.30
2018-07-26T13:51:32.018Z,5.87
2018-07-26T13:54:00.134Z,7.40
2018-07-26T13:56:27.949Z,5.43
2018-07-26T13:58:55.847Z,9.07
2018-07-26T14:01:23.736Z,6.30
2018-07-26T14:03:51.615Z,6.40
2018-07-26T14:06:19.449Z,6.60
2018-07-26T14:08:47.283Z,6.33
2018-07-26T14:11:15.102Z,6.97
2018-07-26T14:13:42.957Z,6.00
2018-07-26T14:16:10.793Z,6.07
2018-07-26T14:18:38.618Z,6.87
2018-07-26T14:21:06.511Z,6.37
2018-07-26T14:23:37.830Z,6.37
2018-07-26T14:26:07.865Z,6.80
2018-07-26T14:28:35.706Z,6.17
2018-07-26T14:31:03.565Z,5.80
2018-07-26T14:33:31.425Z,6.53
2018-07-26T14:35:59.250Z,6.57
2018-07-26T14:38:27.164Z,5.80
2018-07-26T14:40:55.038Z,6.40
2018-07-26T14:43:22.968Z,6.40
2018-07-26T14:45:50.943Z,6.80
2018-07-26T14:48:18.864Z,6.30
2018-07-26T14:50:46.803Z,7.03
2018-07-26T14:53:14.708Z,6.90
2018-07-26T14:55:42.745Z,6.27
2018-07-26T14:58:10.641Z,6.13
2018-07-26T15:00:38.558Z,6.57
2018-07-26T15:03:06.455Z,6.03
2018-07-26T15:05:34.321Z,6.97
2018-07-26T15:08:02.204Z,6.03
2018-07-26T15:10:30.127Z,6.33
2018-07-26T15:12:58.005Z,5.93
2018-07-26T15:15:25.868Z,6.73
2018-07-26T15:17:53.758Z,6.33
2018-07-26T15:20:21.679Z,6.07
2018-07-26T15:22:49.552Z,5.80
2018-07-26T15:25:22.910Z,6.50
2018-07-26T15:27:50.833Z,7.40
2018-07-26T15:30:18.930Z,6.17
2018-07-26T15:32:46.828Z,6.20
2018-07-26T15:35:14.738Z,6.30
2018-07-26T15:37:42.730Z,7.10
2018-07-26T15:40:10.799Z,10.20
2018-07-26T15:42:38.733Z,7.03
2018-07-26T15:45:06.670Z,8.27
2018-07-26T15:47:34.639Z,9.60
2018-07-26T15:50:02.553Z,7.60
2018-07-26T15:52:30.522Z,7.30
2018-07-26T15:54:58.504Z,7.07
2018-07-26T15:57:26.426Z,9.07
2018-07-26T15:59:54.360Z,7.70
2018-07-26T16:02:22.214Z,11.07
2018-07-26T16:04:50.100Z,9.83
2018-07-26T16:07:18.038Z,7.87
2018-07-26T16:09:46.178Z,7.77
2018-07-26T16:12:14.070Z,7.93
2018-07-26T16:14:41.956Z,10.07
2018-07-26T16:17:09.853Z,9.87
2018-07-26T16:19:37.793Z,9.57
2018-07-26T16:22:05.961Z,10.60
2018-07-26T16:24:33.842Z,9.50
2018-07-26T16:27:01.900Z,10.90
2018-07-26T16:29:29.837Z,8.00
2018-07-26T16:31:57.881Z,8.20
2018-07-26T16:34:25.785Z,9.47
2018-07-26T16:36:53.977Z,10.73
2018-07-26T16:39:21.826Z,13.90
2018-07-26T16:41:49.681Z,11.13
2018-07-26T16:44:17.535Z,10.43
2018-07-26T16:46:45.375Z,8.63
2018-07-26T16:49:13.360Z,9.27
2018-07-26T16:51:41.305Z,8.40
2018-07-26T16:54:09.161Z,10.93
2018-07-26T16:56:37.059Z,7.80
2018-07-26T16:59:04.947Z,8.83
2018-07-26T17:01:32.853Z,9.17
2018-07-26T17:04:00.845Z,9.83
2018-07-26T17:06:28.733Z,9.13
2018-07-26T17:08:56.612Z,7.53
2018-07-26T17:11:24.476Z,8.33
2018-07-26T17:13:52.330Z,7.80
2018-07-26T17:16:20.223Z,7.60
2018-07-26T17:18:48.214Z,10.27
2018-07-26T17:21:16.078Z,7.63
2018-07-26T17:23:44.055Z,8.33
2018-07-26T17:26:11.959Z,7.73
2018-07-26T17:28:39.916Z,8.27
2018-07-26T17:31:07.870Z,7.67
2018-07-26T17:33:36.320Z,6.90
2018-07-26T17:36:04.306Z,9.43
2018-07-26T17:38:32.219Z,9.97
2018-07-26T17:41:00.141Z,7.97
2018-07-26T17:43:28.042Z,8.17
2018-07-26T17:45:55.909Z,8.63
2018-07-26T17:48:23.818Z,8.47
2018-07-26T17:50:51.709Z,12.87
2018-07-26T17:53:19.582Z,10.75
2018-07-26T17:55:47.497Z,7.60
2018-07-26T17:58:15.378Z,8.00
2018-07-26T18:00:43.246Z,8.20
2018-07-26T18:03:11.122Z,7.03
2018-07-26T18:05:39.023Z,7.93
2018-07-26T18:08:06.997Z,9.13
2018-07-26T18:10:34.911Z,9.90
2018-07-26T18:13:02.889Z,7.87
2018-07-26T18:15:30.742Z,7.63
2018-07-26T18:17:58.648Z,7.77
2018-07-26T18:20:26.596Z,11.37
2018-07-26T18:22:54.521Z,6.97
2018-07-26T18:25:22.379Z,7.17
2018-07-26T18:27:50.258Z,8.00
2018-07-26T18:30:18.162Z,8.47
2018-07-26T18:32:46.141Z,7.37
2018-07-26T18:35:14.056Z,8.43
2018-07-26T18:37:42.001Z,7.20
2018-07-26T18:40:09.933Z,7.27
2018-07-26T18:42:37.944Z,7.53
2018-07-26T18:45:07.283Z,7.70
2018-07-26T18:47:35.237Z,7.17
2018-07-26T18:50:03.340Z,6.97
2018-07-26T18:52:31.191Z,6.53
2018-07-26T18:54:59.082Z,5.93
2018-07-26T18:57:26.948Z,6.97
2018-07-26T18:59:54.853Z,7.37
2018-07-26T19:02:22.774Z,7.60
2018-07-26T19:04:50.724Z,8.30
2018-07-26T19:07:18.671Z,11.03
2018-07-26T19:09:46.556Z,8.60
2018-07-26T19:12:14.509Z,9.30
2018-07-26T19:14:42.395Z,10.23
2018-07-26T19:17:10.456Z,7.80
2018-07-26T19:19:38.360Z,7.30
2018-07-26T19:22:06.753Z,7.30
2018-07-26T19:24:34.746Z,9.13
2018-07-26T19:27:02.989Z,10.87
2018-07-26T19:29:30.869Z,6.57
2018-07-26T19:31:58.752Z,6.33
2018-07-26T19:34:26.677Z,8.17
2018-07-26T19:36:54.610Z,7.57
2018-07-26T19:39:22.587Z,6.47
2018-07-26T19:41:50.625Z,6.00
2018-07-26T19:44:18.556Z,7.27
2018-07-26T19:46:46.496Z,6.23
2018-07-26T19:49:14.447Z,6.27
2018-07-26T19:51:42.306Z,6.23
2018-07-26T19:54:10.226Z,6.10
2018-07-26T19:56:38.134Z,7.63
2018-07-26T19:59:06.116Z,8.50
2018-07-26T20:01:34.038Z,9.27
2018-07-26T20:04:01.953Z,7.10
2018-07-26T20:06:30.165Z,7.20
2018-07-26T20:08:58.105Z,7.30
2018-07-26T20:11:25.988Z,7.73
2018-07-26T20:13:53.862Z,8.67
2018-07-26T20:16:21.710Z,6.87
2018-07-26T20:18:49.560Z,7.77
2018-07-26T20:21:17.490Z,7.40
2018-07-26T20:23:45.373Z,6.77
2018-07-26T20:26:13.298Z,7.73
2018-07-26T20:28:41.233Z,7.93
2018-07-26T20:31:09.117Z,9.27
2018-07-26T20:33:37.084Z,9.93
2018-07-26T20:36:05.090Z,7.27
2018-07-26T20:38:32.953Z,7.60
2018-07-26T20:41:00.818Z,7.50
2018-07-26T20:43:28.732Z,7.50
2018-07-26T20:45:56.646Z,7.60
2018-07-26T20:48:24.629Z,7.37
2018-07-26T20:50:52.497Z,7.80
2018-07-26T20:53:20.391Z,8.93
2018-07-26T20:55:48.276Z,7.27
2018-07-26T20:58:16.181Z,7.87
2018-07-26T21:00:44.106Z,7.37
2018-07-26T21:03:11.982Z,9.00
2018-07-26T21:05:39.828Z,12.23
2018-07-26T21:08:07.704Z,9.17
2018-07-26T21:10:36.603Z,8.37
2018-07-26T21:13:04.488Z,8.37
2018-07-26T21:15:32.434Z,8.67
2018-07-26T21:18:00.335Z,10.03
2018-07-26T21:20:28.206Z,7.93
2018-07-26T21:22:56.093Z,8.33
2018-07-26T21:25:23.933Z,8.10
2018-07-26T21:27:51.849Z,8.20
2018-07-26T21:30:19.713Z,8.27
2018-07-26T21:32:47.623Z,9.07
2018-07-26T21:35:15.547Z,8.80
2018-07-26T21:37:43.425Z,8.33
2018-07-26T21:40:11.258Z,8.03
2018-07-26T21:42:39.143Z,8.57
2018-07-26T21:45:07.094Z,8.00
2018-07-26T21:47:34.963Z,9.00
2018-07-26T21:50:02.931Z,7.87
2018-07-26T21:52:30.863Z,8.43
2018-07-26T21:54:58.698Z,7.83
2018-07-26T21:57:26.673Z,8.27
2018-07-26T21:59:54.513Z,8.77
2018-07-26T22:02:22.457Z,8.53
2018-07-26T22:04:50.364Z,8.17
2018-07-26T22:07:18.268Z,7.63
2018-07-26T22:09:46.119Z,7.23
2018-07-26T22:12:13.989Z,8.43
2018-07-26T22:14:41.836Z,8.33
2018-07-26T22:17:09.946Z,8.00
2018-07-26T22:19:37.820Z,9.57
2018-07-26T22:22:05.687Z,9.43
2018-07-26T22:24:33.550Z,9.67
2018-07-26T22:27:01.390Z,8.40
2018-07-26T22:29:29.238Z,8.50
2018-07-26T22:31:57.127Z,11.17
2018-07-26T22:34:24.951Z,7.90
2018-07-26T22:36:52.865Z,7.77
2018-07-26T22:39:20.727Z,8.67
2018-07-26T22:41:48.594Z,8.60
2018-07-26T22:44:16.483Z,9.53
2018-07-26T22:46:44.381Z,9.00
2018-07-26T22:49:12.251Z,9.87
2018-07-26T22:51:40.126Z,10.33
2018-07-26T22:54:08.001Z,9.10
2018-07-26T22:56:35.902Z,10.87
2018-07-26T22:59:03.832Z,9.33
2018-07-26T23:01:31.744Z,9.73
2018-07-26T23:03:59.626Z,9.60
2018-07-26T23:06:27.687Z,10.97
2018-07-26T23:08:55.528Z,9.77
2018-07-26T23:11:23.377Z,10.93
2018-07-26T23:13:51.277Z,12.97
2018-07-26T23:16:19.114Z,9.53
2018-07-26T23:18:47.005Z,9.43
2018-07-26T23:21:14.894Z,8.90
2018-07-26T23:23:42.733Z,9.10
2018-07-26T23:26:10.686Z,9.27
2018-07-26T23:28:38.533Z,9.40
2018-07-26T23:31:06.580Z,8.97
2018-07-26T23:33:34.422Z,11.10
2018-07-26T23:36:02.280Z,13.20
2018-07-26T23:38:30.141Z,12.87
2018-07-26T23:40:57.973Z,14.83
2018-07-26T23:43:25.835Z,14.63
2018-07-26T23:45:53.700Z,14.73
2018-07-26T23:48:21.556Z,15.27
2018-07-26T23:50:49.467Z,15.97
2018-07-26T23:53:17.310Z,14.90
2018-07-26T23:55:45.170Z,14.53
2018-07-26T23:58:13.036Z,13.00
